9HGIG MMUN-MKJS
Flight info
| Callsign | 9HGIG |
|---|---|
| Flight time | 1h 19m |
| Altitude | 41000 |
| Route | HECA2A/12R HECAT UJ52 ILUBA UL577 MAMBI UR640 FROST G633 PETSI LENAR7 |
| Aircraft | A346/H-SDE2E3FGHIJ3J4J5M1RWXY/LB1D1 |
Departure
| Time | 2026-04-30 19:00 |
|---|---|
| Airport | Cancún International Airport (MMUN) |
Arrival
| Time | 2026-04-30 20:20 |
|---|---|
| Airport | Sangster International Airport (MKJS) |
| Time | Latitude | Longitude | Altitude | Speed | Heading |
|---|---|---|---|---|---|
| 2026-04-30 18:26 | 21.03506 | -86.86863 | 84 ft | 0 kts | 9° |
| 2026-04-30 18:46 | 21.03504 | -86.86863 | 38 ft | 2 kts | 9° |
| 2026-04-30 18:46 | 21.03487 | -86.86866 | 36 ft | 4 kts | 10° |
| 2026-04-30 18:46 | 21.03462 | -86.86873 | 34 ft | 4 kts | 14° |
| 2026-04-30 18:47 | 21.03444 | -86.86874 | 35 ft | 2 kts | 344° |
| 2026-04-30 18:47 | 21.03422 | -86.86864 | 35 ft | 4 kts | 324° |
| 2026-04-30 18:47 | 21.03404 | -86.86845 | 35 ft | 4 kts | 304° |
| 2026-04-30 18:47 | 21.03391 | -86.86824 | 35 ft | 1 kts | 302° |
| 2026-04-30 18:48 | 21.03391 | -86.86823 | 35 ft | 0 kts | 302° |
| 2026-04-30 18:52 | 21.03393 | -86.86826 | 35 ft | 0 kts | 302° |
| 2026-04-30 18:53 | 21.03406 | -86.86848 | 38 ft | 7 kts | 302° |
| 2026-04-30 18:53 | 21.03444 | -86.86910 | 38 ft | 13 kts | 304° |
| 2026-04-30 18:53 | 21.03505 | -86.87007 | 38 ft | 18 kts | 303° |
| 2026-04-30 18:54 | 21.03533 | -86.87110 | 38 ft | 14 kts | 233° |
| 2026-04-30 18:54 | 21.03528 | -86.87184 | 39 ft | 12 kts | 299° |
| 2026-04-30 18:54 | 21.03585 | -86.87274 | 39 ft | 17 kts | 304° |
| 2026-04-30 18:54 | 21.03661 | -86.87393 | 40 ft | 21 kts | 304° |
| 2026-04-30 18:55 | 21.03740 | -86.87521 | 39 ft | 22 kts | 303° |
| 2026-04-30 18:55 | 21.03938 | -86.87837 | 39 ft | 29 kts | 304° |
| 2026-04-30 18:55 | 21.04044 | -86.88006 | 39 ft | 28 kts | 304° |
| 2026-04-30 18:56 | 21.04284 | -86.88388 | 39 ft | 33 kts | 304° |
| 2026-04-30 18:56 | 21.04409 | -86.88586 | 39 ft | 29 kts | 303° |
| 2026-04-30 18:56 | 21.04519 | -86.88762 | 39 ft | 25 kts | 304° |
| 2026-04-30 18:57 | 21.04619 | -86.89017 | 39 ft | 2 kts | 217° |
| 2026-04-30 18:58 | 21.04591 | -86.89039 | 40 ft | 8 kts | 215° |
| 2026-04-30 18:58 | 21.04552 | -86.89069 | 40 ft | 8 kts | 215° |
| 2026-04-30 18:58 | 21.04510 | -86.89057 | 40 ft | 8 kts | 139° |
| 2026-04-30 18:59 | 21.04486 | -86.89025 | 41 ft | 0 kts | 122° |
| 2026-04-30 19:00 | 21.04367 | -86.88831 | 42 ft | 74 kts | 124° |
| 2026-04-30 19:00 | 21.03914 | -86.88122 | 43 ft | 153 kts | 123° |
| 2026-04-30 19:00 | 21.02655 | -86.85878 | 1808 ft | 174 kts | 120° |
| 2026-04-30 19:01 | 21.01501 | -86.83540 | 3398 ft | 192 kts | 119° |
| 2026-04-30 19:01 | 21.00830 | -86.82227 | 4015 ft | 209 kts | 121° |
| 2026-04-30 19:02 | 20.99258 | -86.79251 | 5211 ft | 249 kts | 122° |
| 2026-04-30 19:02 | 20.97422 | -86.75834 | 6869 ft | 273 kts | 121° |
| 2026-04-30 19:03 | 20.95455 | -86.72281 | 8184 ft | 279 kts | 122° |
| 2026-04-30 19:03 | 20.93244 | -86.68838 | 8468 ft | 282 kts | 124° |
| 2026-04-30 19:04 | 20.91009 | -86.65435 | 8474 ft | 280 kts | 124° |
| 2026-04-30 19:04 | 20.88766 | -86.62035 | 8476 ft | 279 kts | 124° |
| 2026-04-30 19:05 | 20.86523 | -86.58638 | 8470 ft | 281 kts | 124° |
| 2026-04-30 19:05 | 20.84266 | -86.55229 | 8470 ft | 279 kts | 124° |
| 2026-04-30 19:06 | 20.82001 | -86.51808 | 8473 ft | 282 kts | 124° |
| 2026-04-30 19:06 | 20.80865 | -86.50096 | 8473 ft | 281 kts | 124° |
| 2026-04-30 19:06 | 20.78617 | -86.46707 | 8469 ft | 279 kts | 124° |
| 2026-04-30 19:07 | 20.76360 | -86.43300 | 8468 ft | 281 kts | 124° |
| 2026-04-30 19:07 | 20.75231 | -86.41601 | 8465 ft | 280 kts | 124° |
| 2026-04-30 19:08 | 20.72919 | -86.38120 | 9127 ft | 294 kts | 124° |
| 2026-04-30 19:08 | 20.70578 | -86.34604 | 11164 ft | 299 kts | 123° |
| 2026-04-30 19:08 | 20.69403 | -86.32694 | 11762 ft | 316 kts | 119° |
| 2026-04-30 19:09 | 20.67318 | -86.28267 | 12954 ft | 349 kts | 111° |
| 2026-04-30 19:09 | 20.66324 | -86.25846 | 13765 ft | 359 kts | 111° |
| 2026-04-30 19:09 | 20.65321 | -86.23389 | 14480 ft | 369 kts | 111° |
| 2026-04-30 19:10 | 20.63225 | -86.18257 | 16087 ft | 382 kts | 111° |
| 2026-04-30 19:10 | 20.61044 | -86.12951 | 17776 ft | 395 kts | 112° |
| 2026-04-30 19:11 | 20.59941 | -86.10276 | 18528 ft | 401 kts | 112° |
| 2026-04-30 19:11 | 20.57657 | -86.04733 | 19693 ft | 411 kts | 112° |
| 2026-04-30 19:11 | 20.56451 | -86.01936 | 19941 ft | 414 kts | 115° |
| 2026-04-30 19:12 | 20.55089 | -85.99214 | 19960 ft | 415 kts | 118° |
| 2026-04-30 19:12 | 20.53648 | -85.96583 | 19965 ft | 415 kts | 119° |
| 2026-04-30 19:12 | 20.52173 | -85.93921 | 19968 ft | 416 kts | 119° |
| 2026-04-30 19:13 | 20.49164 | -85.88501 | 21120 ft | 426 kts | 119° |
| 2026-04-30 19:13 | 20.46145 | -85.83046 | 22716 ft | 433 kts | 119° |
| 2026-04-30 19:13 | 20.44597 | -85.80251 | 23420 ft | 439 kts | 119° |
| 2026-04-30 19:14 | 20.43023 | -85.77410 | 24020 ft | 444 kts | 119° |
| 2026-04-30 19:14 | 20.41455 | -85.74583 | 24605 ft | 449 kts | 119° |
| 2026-04-30 19:14 | 20.39854 | -85.71699 | 25238 ft | 453 kts | 119° |
| 2026-04-30 19:14 | 20.38239 | -85.68788 | 25881 ft | 458 kts | 119° |
| 2026-04-30 19:15 | 20.36604 | -85.65842 | 26498 ft | 462 kts | 119° |
| 2026-04-30 19:15 | 20.33305 | -85.59901 | 27762 ft | 472 kts | 118° |
| 2026-04-30 19:15 | 20.31620 | -85.56868 | 28394 ft | 476 kts | 118° |
| 2026-04-30 19:16 | 20.29916 | -85.53804 | 29019 ft | 481 kts | 118° |
| 2026-04-30 19:16 | 20.28198 | -85.50717 | 29654 ft | 486 kts | 118° |
| 2026-04-30 19:16 | 20.24729 | -85.44494 | 30791 ft | 493 kts | 118° |
| 2026-04-30 19:17 | 20.22992 | -85.41340 | 31560 ft | 491 kts | 116° |
| 2026-04-30 19:17 | 20.20003 | -85.34884 | 33083 ft | 485 kts | 108° |
| 2026-04-30 19:17 | 20.18772 | -85.31542 | 33825 ft | 481 kts | 104° |
| 2026-04-30 19:18 | 20.17147 | -85.25904 | 34946 ft | 475 kts | 98° |
| 2026-04-30 19:18 | 20.16142 | -85.21332 | 35858 ft | 471 kts | 97° |
| 2026-04-30 19:18 | 20.15417 | -85.17919 | 36527 ft | 470 kts | 97° |
| 2026-04-30 19:19 | 20.14696 | -85.14525 | 37169 ft | 468 kts | 96° |
| 2026-04-30 19:19 | 20.13983 | -85.11184 | 37776 ft | 467 kts | 96° |
| 2026-04-30 19:19 | 20.12536 | -85.04440 | 38881 ft | 465 kts | 97° |
| 2026-04-30 19:20 | 20.11815 | -85.01071 | 39305 ft | 465 kts | 97° |
| 2026-04-30 19:20 | 20.11091 | -84.97697 | 39648 ft | 466 kts | 97° |
| 2026-04-30 19:20 | 20.09635 | -84.90950 | 40219 ft | 472 kts | 98° |
| 2026-04-30 19:21 | 20.08893 | -84.87523 | 40493 ft | 474 kts | 98° |
| 2026-04-30 19:21 | 20.07395 | -84.80631 | 40932 ft | 479 kts | 99° |
| 2026-04-30 19:22 | 20.05891 | -84.73746 | 40936 ft | 480 kts | 99° |
| 2026-04-30 19:23 | 20.01352 | -84.53007 | 40942 ft | 480 kts | 100° |
| 2026-04-30 19:24 | 19.99065 | -84.42597 | 40944 ft | 480 kts | 100° |
| 2026-04-30 19:25 | 19.95263 | -84.25334 | 40947 ft | 480 kts | 100° |
| 2026-04-30 19:26 | 19.92198 | -84.11501 | 40944 ft | 480 kts | 100° |
| 2026-04-30 19:27 | 19.89891 | -84.01120 | 40945 ft | 480 kts | 100° |
| 2026-04-30 19:28 | 19.87589 | -83.90787 | 40949 ft | 480 kts | 101° |
| 2026-04-30 19:29 | 19.84493 | -83.76933 | 40946 ft | 480 kts | 101° |
| 2026-04-30 19:30 | 19.81397 | -83.63137 | 40943 ft | 480 kts | 101° |
| 2026-04-30 19:31 | 19.78285 | -83.49308 | 40945 ft | 480 kts | 101° |
| 2026-04-30 19:31 | 19.75935 | -83.38920 | 40942 ft | 480 kts | 101° |
| 2026-04-30 19:32 | 19.74369 | -83.32009 | 40941 ft | 480 kts | 101° |
| 2026-04-30 19:32 | 19.72809 | -83.25135 | 40940 ft | 480 kts | 101° |
| 2026-04-30 19:33 | 19.71236 | -83.18217 | 40945 ft | 480 kts | 101° |
| 2026-04-30 19:33 | 19.69928 | -83.12462 | 40944 ft | 481 kts | 102° |
| 2026-04-30 19:34 | 19.68347 | -83.05537 | 40938 ft | 482 kts | 102° |
| 2026-04-30 19:35 | 19.65972 | -82.95159 | 40926 ft | 482 kts | 102° |
| 2026-04-30 19:35 | 19.64396 | -82.88284 | 40941 ft | 481 kts | 102° |
| 2026-04-30 19:36 | 19.62805 | -82.81361 | 40940 ft | 480 kts | 102° |
| 2026-04-30 19:36 | 19.60434 | -82.71048 | 40942 ft | 481 kts | 102° |
| 2026-04-30 19:37 | 19.58840 | -82.64145 | 40942 ft | 481 kts | 102° |
| 2026-04-30 19:37 | 19.57242 | -82.57236 | 40943 ft | 481 kts | 102° |
| 2026-04-30 19:38 | 19.55643 | -82.50329 | 40944 ft | 481 kts | 102° |
| 2026-04-30 19:38 | 19.54050 | -82.43466 | 40944 ft | 481 kts | 102° |
| 2026-04-30 19:39 | 19.52442 | -82.36542 | 40936 ft | 482 kts | 102° |
| 2026-04-30 19:39 | 19.50838 | -82.29653 | 40939 ft | 482 kts | 102° |
| 2026-04-30 19:40 | 19.49222 | -82.22724 | 40946 ft | 482 kts | 102° |
| 2026-04-30 19:40 | 19.47615 | -82.15848 | 40938 ft | 482 kts | 102° |
| 2026-04-30 19:41 | 19.45994 | -82.08922 | 40936 ft | 482 kts | 102° |
| 2026-04-30 19:41 | 19.44370 | -82.02007 | 40936 ft | 482 kts | 102° |
| 2026-04-30 19:42 | 19.42739 | -81.95116 | 40939 ft | 482 kts | 102° |
| 2026-04-30 19:42 | 19.41101 | -81.88205 | 40944 ft | 482 kts | 102° |
| 2026-04-30 19:43 | 19.39460 | -81.81286 | 40946 ft | 482 kts | 102° |
| 2026-04-30 19:44 | 19.37003 | -81.70954 | 40939 ft | 482 kts | 103° |
| 2026-04-30 19:44 | 19.35361 | -81.64059 | 40943 ft | 483 kts | 103° |
| 2026-04-30 19:45 | 19.33697 | -81.57085 | 40940 ft | 484 kts | 103° |
| 2026-04-30 19:45 | 19.32046 | -81.50183 | 40955 ft | 484 kts | 103° |
| 2026-04-30 19:46 | 19.30385 | -81.43250 | 40959 ft | 484 kts | 103° |
| 2026-04-30 19:46 | 19.28732 | -81.36344 | 40957 ft | 484 kts | 102° |
| 2026-04-30 19:47 | 19.27195 | -81.29381 | 40958 ft | 484 kts | 101° |
| 2026-04-30 19:47 | 19.25685 | -81.22391 | 40955 ft | 486 kts | 102° |
| 2026-04-30 19:48 | 19.24238 | -81.15755 | 40939 ft | 487 kts | 102° |
| 2026-04-30 19:48 | 19.22701 | -81.08747 | 40946 ft | 488 kts | 102° |
| 2026-04-30 19:49 | 19.21156 | -81.01743 | 40940 ft | 488 kts | 102° |
| 2026-04-30 19:49 | 19.18834 | -80.91229 | 40937 ft | 488 kts | 102° |
| 2026-04-30 19:50 | 19.17287 | -80.84208 | 40936 ft | 490 kts | 103° |
| 2026-04-30 19:50 | 19.15721 | -80.77156 | 40937 ft | 491 kts | 103° |
| 2026-04-30 19:51 | 19.14165 | -80.70159 | 40934 ft | 491 kts | 103° |
| 2026-04-30 19:51 | 19.12596 | -80.63108 | 40937 ft | 491 kts | 103° |
| 2026-04-30 19:52 | 19.11033 | -80.56097 | 40935 ft | 491 kts | 103° |
| 2026-04-30 19:52 | 19.09461 | -80.49041 | 40892 ft | 491 kts | 103° |
| 2026-04-30 19:53 | 19.08672 | -80.45515 | 40379 ft | 492 kts | 103° |
| 2026-04-30 19:53 | 19.07873 | -80.41949 | 39397 ft | 502 kts | 104° |
| 2026-04-30 19:53 | 19.07069 | -80.38362 | 38613 ft | 508 kts | 104° |
| 2026-04-30 19:53 | 19.06249 | -80.34711 | 37804 ft | 511 kts | 104° |
| 2026-04-30 19:54 | 19.05424 | -80.31035 | 37114 ft | 512 kts | 104° |
| 2026-04-30 19:54 | 19.04596 | -80.27354 | 36454 ft | 511 kts | 104° |
| 2026-04-30 19:54 | 19.03781 | -80.23729 | 35817 ft | 511 kts | 104° |
| 2026-04-30 19:54 | 19.02955 | -80.20063 | 35164 ft | 511 kts | 104° |
| 2026-04-30 19:55 | 19.02125 | -80.16383 | 34514 ft | 512 kts | 104° |
| 2026-04-30 19:55 | 19.01298 | -80.12711 | 33827 ft | 513 kts | 104° |
| 2026-04-30 19:55 | 19.00464 | -80.09026 | 33052 ft | 514 kts | 104° |
| 2026-04-30 19:55 | 18.99638 | -80.05390 | 32389 ft | 512 kts | 103° |
| 2026-04-30 19:56 | 18.98806 | -80.01726 | 31751 ft | 510 kts | 103° |
| 2026-04-30 19:56 | 18.97980 | -79.98084 | 31130 ft | 507 kts | 103° |
| 2026-04-30 19:56 | 18.97158 | -79.94462 | 30548 ft | 503 kts | 103° |
| 2026-04-30 19:56 | 18.96342 | -79.90868 | 29950 ft | 500 kts | 102° |
| 2026-04-30 19:57 | 18.95528 | -79.87282 | 29236 ft | 497 kts | 102° |
| 2026-04-30 19:57 | 18.94740 | -79.83808 | 28829 ft | 487 kts | 102° |
| 2026-04-30 19:57 | 18.93953 | -79.80346 | 28399 ft | 479 kts | 102° |
| 2026-04-30 19:57 | 18.93182 | -79.76951 | 27976 ft | 472 kts | 102° |
| 2026-04-30 19:58 | 18.92419 | -79.73599 | 27548 ft | 465 kts | 102° |
| 2026-04-30 19:58 | 18.91663 | -79.70285 | 27125 ft | 459 kts | 102° |
| 2026-04-30 19:58 | 18.90916 | -79.67013 | 26697 ft | 454 kts | 102° |
| 2026-04-30 19:58 | 18.90177 | -79.63778 | 26278 ft | 449 kts | 102° |
| 2026-04-30 19:59 | 18.89446 | -79.60583 | 25853 ft | 444 kts | 102° |
| 2026-04-30 19:59 | 18.88732 | -79.57460 | 25431 ft | 441 kts | 102° |
| 2026-04-30 19:59 | 18.87297 | -79.51201 | 24576 ft | 434 kts | 102° |
| 2026-04-30 20:00 | 18.86586 | -79.48103 | 24147 ft | 430 kts | 102° |
| 2026-04-30 20:00 | 18.85881 | -79.45038 | 23720 ft | 427 kts | 102° |
| 2026-04-30 20:00 | 18.85180 | -79.41988 | 23260 ft | 425 kts | 102° |
| 2026-04-30 20:00 | 18.84485 | -79.38961 | 22751 ft | 422 kts | 102° |
| 2026-04-30 20:01 | 18.83115 | -79.33007 | 21832 ft | 416 kts | 102° |
| 2026-04-30 20:01 | 18.82433 | -79.30048 | 21396 ft | 412 kts | 102° |
| 2026-04-30 20:01 | 18.81754 | -79.27107 | 20947 ft | 409 kts | 102° |
| 2026-04-30 20:02 | 18.80411 | -79.21288 | 20068 ft | 403 kts | 102° |
| 2026-04-30 20:02 | 18.79755 | -79.18454 | 19643 ft | 401 kts | 103° |
| 2026-04-30 20:03 | 18.78435 | -79.12751 | 18728 ft | 398 kts | 102° |
| 2026-04-30 20:03 | 18.77780 | -79.09906 | 18321 ft | 395 kts | 102° |
| 2026-04-30 20:03 | 18.77126 | -79.07094 | 17865 ft | 392 kts | 103° |
| 2026-04-30 20:03 | 18.76484 | -79.04334 | 17414 ft | 389 kts | 102° |
| 2026-04-30 20:04 | 18.75841 | -79.01566 | 16951 ft | 387 kts | 102° |
| 2026-04-30 20:04 | 18.75200 | -78.98797 | 16522 ft | 384 kts | 103° |
| 2026-04-30 20:04 | 18.74559 | -78.96063 | 16097 ft | 381 kts | 103° |
| 2026-04-30 20:05 | 18.73294 | -78.90634 | 15198 ft | 378 kts | 102° |
| 2026-04-30 20:05 | 18.72675 | -78.87975 | 14776 ft | 376 kts | 103° |
| 2026-04-30 20:05 | 18.71420 | -78.82621 | 13897 ft | 373 kts | 102° |
| 2026-04-30 20:06 | 18.70803 | -78.79968 | 13436 ft | 371 kts | 103° |
| 2026-04-30 20:06 | 18.70187 | -78.77325 | 12988 ft | 368 kts | 103° |
| 2026-04-30 20:06 | 18.69572 | -78.74706 | 12547 ft | 365 kts | 103° |
| 2026-04-30 20:06 | 18.68971 | -78.72139 | 12131 ft | 362 kts | 103° |
| 2026-04-30 20:07 | 18.68370 | -78.69569 | 11720 ft | 358 kts | 104° |
| 2026-04-30 20:07 | 18.67774 | -78.67022 | 11310 ft | 355 kts | 104° |
| 2026-04-30 20:07 | 18.66606 | -78.62037 | 10585 ft | 345 kts | 104° |
| 2026-04-30 20:08 | 18.66037 | -78.59626 | 10474 ft | 331 kts | 104° |
| 2026-04-30 20:08 | 18.65492 | -78.57309 | 10330 ft | 318 kts | 104° |
| 2026-04-30 20:08 | 18.64967 | -78.55082 | 10221 ft | 306 kts | 105° |
| 2026-04-30 20:08 | 18.64462 | -78.52939 | 10106 ft | 294 kts | 105° |
| 2026-04-30 20:09 | 18.63977 | -78.50873 | 10007 ft | 285 kts | 105° |
| 2026-04-30 20:09 | 18.63496 | -78.48842 | 9726 ft | 285 kts | 105° |
| 2026-04-30 20:09 | 18.62543 | -78.44804 | 9056 ft | 283 kts | 105° |
| 2026-04-30 20:10 | 18.61599 | -78.40811 | 8451 ft | 279 kts | 104° |
| 2026-04-30 20:10 | 18.61129 | -78.38831 | 8143 ft | 277 kts | 104° |
| 2026-04-30 20:10 | 18.60660 | -78.36857 | 7847 ft | 276 kts | 104° |
| 2026-04-30 20:11 | 18.59737 | -78.32943 | 7254 ft | 273 kts | 104° |
| 2026-04-30 20:11 | 18.59283 | -78.31030 | 6970 ft | 271 kts | 104° |
| 2026-04-30 20:11 | 18.58824 | -78.29099 | 6679 ft | 270 kts | 104° |
| 2026-04-30 20:12 | 18.57911 | -78.25247 | 6057 ft | 269 kts | 104° |
| 2026-04-30 20:12 | 18.57459 | -78.23338 | 5760 ft | 267 kts | 104° |
| 2026-04-30 20:12 | 18.57014 | -78.21462 | 5463 ft | 266 kts | 104° |
| 2026-04-30 20:13 | 18.56566 | -78.19572 | 5172 ft | 264 kts | 104° |
| 2026-04-30 20:13 | 18.56120 | -78.17685 | 4872 ft | 262 kts | 104° |
| 2026-04-30 20:13 | 18.55677 | -78.15823 | 4588 ft | 260 kts | 104° |
| 2026-04-30 20:13 | 18.55233 | -78.13982 | 4287 ft | 258 kts | 106° |
| 2026-04-30 20:14 | 18.54408 | -78.12336 | 3943 ft | 260 kts | 131° |
| 2026-04-30 20:14 | 18.52896 | -78.11290 | 3603 ft | 263 kts | 157° |
| 2026-04-30 20:14 | 18.51130 | -78.10843 | 3340 ft | 260 kts | 168° |
| 2026-04-30 20:14 | 18.49337 | -78.10599 | 3047 ft | 259 kts | 172° |
| 2026-04-30 20:15 | 18.47578 | -78.10416 | 2986 ft | 247 kts | 171° |
| 2026-04-30 20:15 | 18.45946 | -78.10164 | 2931 ft | 231 kts | 156° |
| 2026-04-30 20:15 | 18.44722 | -78.09230 | 2934 ft | 211 kts | 123° |
| 2026-04-30 20:15 | 18.44276 | -78.07833 | 2917 ft | 197 kts | 94° |
| 2026-04-30 20:16 | 18.44309 | -78.06400 | 2731 ft | 194 kts | 83° |
| 2026-04-30 20:16 | 18.44582 | -78.05017 | 2492 ft | 194 kts | 73° |
| 2026-04-30 20:16 | 18.45026 | -78.03707 | 2285 ft | 184 kts | 68° |
| 2026-04-30 20:16 | 18.45525 | -78.02504 | 2005 ft | 174 kts | 66° |
| 2026-04-30 20:17 | 18.46014 | -78.01385 | 1793 ft | 160 kts | 65° |
| 2026-04-30 20:17 | 18.46459 | -78.00363 | 1578 ft | 147 kts | 64° |
| 2026-04-30 20:17 | 18.46880 | -77.99416 | 1377 ft | 138 kts | 65° |
| 2026-04-30 20:17 | 18.47274 | -77.98533 | 1180 ft | 129 kts | 64° |
| 2026-04-30 20:18 | 18.47628 | -77.97683 | 1034 ft | 127 kts | 65° |
| 2026-04-30 20:18 | 18.47990 | -77.96831 | 910 ft | 127 kts | 65° |
| 2026-04-30 20:18 | 18.48347 | -77.95978 | 803 ft | 126 kts | 64° |
| 2026-04-30 20:18 | 18.48710 | -77.95130 | 601 ft | 126 kts | 63° |
| 2026-04-30 20:19 | 18.49096 | -77.94300 | 430 ft | 126 kts | 65° |
| 2026-04-30 20:19 | 18.49345 | -77.93745 | 355 ft | 126 kts | 66° |
| 2026-04-30 20:19 | 18.49809 | -77.92630 | 96 ft | 125 kts | 65° |
| 2026-04-30 20:19 | 18.50157 | -77.91814 | 44 ft | 113 kts | 66° |
| 2026-04-30 20:20 | 18.50389 | -77.91286 | 43 ft | 42 kts | 65° |
| 2026-04-30 20:20 | 18.50482 | -77.91077 | 45 ft | 25 kts | 65° |
| 2026-04-30 20:20 | 18.50519 | -77.90938 | 51 ft | 21 kts | 84° |
| 2026-04-30 20:20 | 18.50530 | -77.90799 | 43 ft | 14 kts | 89° |
| 2026-04-30 20:21 | 18.50528 | -77.90713 | 43 ft | 9 kts | 100° |
| 2026-04-30 20:21 | 18.50496 | -77.90672 | 46 ft | 6 kts | 172° |
| 2026-04-30 20:21 | 18.50463 | -77.90700 | 43 ft | 9 kts | 241° |
| 2026-04-30 20:21 | 18.50427 | -77.90778 | 47 ft | 15 kts | 244° |
| 2026-04-30 20:22 | 18.50376 | -77.90892 | 43 ft | 20 kts | 244° |
| 2026-04-30 20:22 | 18.50310 | -77.91037 | 42 ft | 24 kts | 244° |
| 2026-04-30 20:22 | 18.50254 | -77.91175 | 43 ft | 19 kts | 248° |
| 2026-04-30 20:22 | 18.50219 | -77.91260 | 47 ft | 17 kts | 245° |
| 2026-04-30 20:23 | 18.50147 | -77.91314 | 43 ft | 8 kts | 207° |
| 2026-04-30 20:23 | 18.50102 | -77.91360 | 49 ft | 3 kts | 211° |
| 2026-04-30 20:23 | 18.50074 | -77.91371 | 46 ft | 0 kts | 185° |
| 2026-04-30 20:23 | 18.50067 | -77.91371 | 43 ft | 3 kts | 179° |
| 2026-04-30 20:24 | 18.50044 | -77.91371 | 43 ft | 0 kts | 180° |
| 2026-04-30 20:24 | 18.50028 | -77.91371 | 41 ft | 4 kts | 182° |
| 2026-04-30 20:24 | 18.50019 | -77.91372 | 46 ft | 0 kts | 182° |
| 2026-04-30 20:37 | 18.50041 | -77.91371 | 44 ft | 4 kts | 181° |
| 2026-04-30 20:38 | 18.50067 | -77.91371 | 42 ft | 4 kts | 183° |
| 2026-04-30 20:38 | 18.50084 | -77.91366 | 41 ft | 4 kts | 208° |
| 2026-04-30 20:38 | 18.50104 | -77.91350 | 42 ft | 4 kts | 230° |
| 2026-04-30 20:39 | 18.50125 | -77.91310 | 47 ft | 0 kts | 245° |
| 2026-04-30 20:40 | 18.50120 | -77.91321 | 41 ft | 4 kts | 245° |
| 2026-04-30 20:41 | 18.50071 | -77.91433 | 48 ft | 13 kts | 245° |
| 2026-04-30 20:41 | 18.50036 | -77.91538 | 51 ft | 16 kts | 278° |
| 2026-04-30 20:41 | 18.50051 | -77.91657 | 44 ft | 19 kts | 247° |
| 2026-04-30 20:41 | 18.49988 | -77.91799 | 43 ft | 23 kts | 246° |
| 2026-04-30 20:42 | 18.49916 | -77.91965 | 46 ft | 27 kts | 245° |
| 2026-04-30 20:42 | 18.49833 | -77.92152 | 42 ft | 29 kts | 244° |
| 2026-04-30 20:42 | 18.49704 | -77.92360 | 46 ft | 8 kts | 301° |
| 2026-04-30 20:43 | 18.49762 | -77.92404 | 43 ft | 13 kts | 333° |
| 2026-04-30 20:43 | 18.49858 | -77.92446 | 44 ft | 17 kts | 341° |
| 2026-04-30 20:43 | 18.49895 | -77.92430 | 44 ft | 5 kts | 78° |
| 2026-04-30 20:44 | 18.49913 | -77.92384 | 41 ft | 0 kts | 65° |